首页
METAR-TAF:

METAR-TAF

机场 :

羅蘭加洛斯機場

圣但尼, 留尼汪岛

纬度: 20-53S, 经度: 055-31E, 海拔: 21米

当前天气观测

该预报发布于35分钟前的16:00 UTC
风速12节,风向东转东南
温度 25°C
湿度 69%
气压 1017 hPa
能见度10公里或以上

METAR: FMEE 211600Z AUTO 11012KT 9999 ///CB 25/19 Q1017 TEMPO 4500 SHRA

时间: 20:35 (16:35 UTC)

预报

该预报发布于5小时和35分钟前的11:00 UTC
预报有效从21日的 12点(UTC)到 22日的 18点(UTC)
风速15节,风向
能见度10公里或以上
散云层高于3300英尺
短暂存在
从 21日的 13点(UTC)到 21日的 20点(UTC)
能見度: 4500
多云层高于2000英尺, 塔状积云.
阵雨
成为
从 21日的 21点(UTC)到 21日的 23点(UTC)
风速5节,风向东南
短暂存在
从 22日的 03点(UTC)到 22日的 06点(UTC)
能見度: 4500
多云层高于2000英尺, 塔状积云.
阵雨
成为
从 22日的 06点(UTC)到 22日的 08点(UTC)
风速15节,风向

TAF: FMEE 211100Z 2112/2218 09015KT 9999 SCT033 TEMPO 2113/2120 4500 SHRA BKN020TCU BECMG 2121/2123 14005KT TEMPO 2203/2206 4500 SHRA BKN020TCU BECMG 2206/2208 09015KT

超过4000个机场的气象观测和天气预报(METAR&TAF报告)。

可查询的气象台以黄色和红色小点在地图上表示。

将鼠标移到小点上方,可查看气象台名称。

然后点击查看天气观测和预报。

如需切换地图:点击带黑十字的绿色按钮放大地图;点击带横线的绿色按钮缩小地图;或者点击绿色箭头查看邻近地区的地图。


METAR-TAF: